Sea Venture — WDF5080 — position and weather

sailwx.info

Track history (hours):
 
Tides and Currents Weather Stations Pressure Air Temp Water Temp Dewpoint Dewpoint Depression Visibility Wind Speed Wind Dir Waves Ship Positions

Sea Venture

Owner: Great Western Marine Yachts LLC, Seattle, WA. More information available from US FCC via Universal Licensing System and Coast Guard Vessel Documentation Center.

Last reported at 2014-Nov-13 22:33 UTC. Time now 2014-Nov-24 09:17 UTC.
Position N 26°08' W 080°07'.
Warning: this ship's position is 10 days out of date.

Length 33 m.

MMSI: 338103225.

Date/timePositionNaut miles runAvg speedWind from/ knotsBaromVisibWave heightAir tempDewpointWater temp
2014-Nov-13 22:33N 26°08' W 080°07'0 0.0
2014-Nov-13 21:33N 26°08' W 080°07'0 0.0
2014-Nov-13 20:33N 26°08' W 080°07'0 0.0
2014-Nov-13 19:33N 26°08' W 080°07'0 0.5
2014-Nov-13 18:33N 26°08' W 080°07'7 7.4
2014-Nov-13 17:33N 26°00' W 080°06'3 3.2
2014-Nov-13 16:34N 26°01' W 080°03'7 7.2
2014-Nov-13 15:33N 26°08' W 080°07'0 0.4
2014-Nov-13 14:33N 26°08' W 080°07'0 0.0
2014-Nov-13 13:33N 26°08' W 080°07'  
2014-Nov-04 19:07N 26°08' W 080°07'1 1.3
2014-Nov-04 18:33N 26°07' W 080°06'0 0.0
2014-Nov-04 17:33N 26°07' W 080°06'0 0.0
2014-Nov-04 16:33N 26°07' W 080°06'0 0.0
2014-Nov-04 15:33N 26°07' W 080°06'0 0.0
2014-Nov-04 14:33N 26°07' W 080°06'0 0.0
2014-Nov-04 13:33N 26°07' W 080°06'  
Track history (hours):
 
Tides and Currents Weather Stations Pressure Air Temp Water Temp Dewpoint Dewpoint Depression Visibility Wind Speed Wind Dir Waves Ship Positions

Sea Venture

Owner: Great Western Marine Yachts LLC, Seattle, WA. More information available from US FCC via Universal Licensing System and Coast Guard Vessel Documentation Center.

Last reported at 2014-Nov-13 22:33 UTC. Time now 2014-Nov-24 09:17 UTC.
Position N 26°08' W 080°07'.
Warning: this ship's position is 10 days out of date.

Length 33 m.

MMSI: 338103225.

Date/timePositionNaut miles runAvg speedWind from/ knotsBaromVisibWave heightAir tempDewpointWater temp
2014-Nov-13 22:33N 26°08' W 080°07'0 0.0
2014-Nov-13 21:33N 26°08' W 080°07'0 0.0
2014-Nov-13 20:33N 26°08' W 080°07'0 0.0
2014-Nov-13 19:33N 26°08' W 080°07'0 0.5
2014-Nov-13 18:33N 26°08' W 080°07'7 7.4
2014-Nov-13 17:33N 26°00' W 080°06'3 3.2
2014-Nov-13 16:34N 26°01' W 080°03'7 7.2
2014-Nov-13 15:33N 26°08' W 080°07'0 0.4
2014-Nov-13 14:33N 26°08' W 080°07'0 0.0
2014-Nov-13 13:33N 26°08' W 080°07'  
2014-Nov-04 19:07N 26°08' W 080°07'1 1.3
2014-Nov-04 18:33N 26°07' W 080°06'0 0.0
2014-Nov-04 17:33N 26°07' W 080°06'0 0.0
2014-Nov-04 16:33N 26°07' W 080°06'0 0.0
2014-Nov-04 15:33N 26°07' W 080°06'0 0.0
2014-Nov-04 14:33N 26°07' W 080°06'0 0.0
2014-Nov-04 13:33N 26°07' W 080°06'  

Dump ship's entire track history